createdAt,value
2019-02-20T00:02:12.932Z,3.10
2019-02-20T00:04:55.228Z,3.10
2019-02-20T00:07:36.518Z,3.10
2019-02-20T00:10:18.129Z,3.10
2019-02-20T00:15:44.140Z,3.10
2019-02-20T00:18:25.667Z,3.00
2019-02-20T00:21:07.085Z,3.00
2019-02-20T00:23:48.060Z,3.00
2019-02-20T00:26:29.254Z,3.00
2019-02-20T00:29:10.336Z,3.00
2019-02-20T00:31:51.636Z,2.90
2019-02-20T00:34:33.349Z,2.90
2019-02-20T00:37:14.875Z,2.90
2019-02-20T00:39:56.488Z,2.90
2019-02-20T00:42:37.852Z,2.80
2019-02-20T00:48:24.267Z,2.80
2019-02-20T00:51:07.423Z,2.80
2019-02-20T00:53:55.737Z,2.80
2019-02-20T00:56:37.245Z,2.80
2019-02-20T00:59:18.520Z,2.80
2019-02-20T01:01:59.763Z,2.80
2019-02-20T01:04:42.211Z,2.80
2019-02-20T01:07:24.037Z,2.80
2019-02-20T01:10:05.999Z,2.80
2019-02-20T01:12:47.361Z,2.80
2019-02-20T01:15:28.859Z,2.80
2019-02-20T01:18:10.736Z,2.80
2019-02-20T01:20:52.542Z,2.80
2019-02-20T01:23:33.817Z,2.80
2019-02-20T01:26:15.641Z,2.70
2019-02-20T01:31:41.513Z,2.70
2019-02-20T01:34:22.910Z,2.70
2019-02-20T01:37:04.212Z,2.70
2019-02-20T01:39:45.133Z,2.70
2019-02-20T01:42:26.512Z,2.80
2019-02-20T01:45:07.561Z,2.80
2019-02-20T01:47:48.850Z,2.80
2019-02-20T01:50:29.986Z,2.80
2019-02-20T01:53:11.623Z,2.80
2019-02-20T01:55:56.628Z,2.70
2019-02-20T01:58:37.923Z,2.70
2019-02-20T02:01:19.717Z,2.60
2019-02-20T02:06:59.827Z,2.60
2019-02-20T02:09:44.669Z,2.50
2019-02-20T02:12:26.550Z,2.50
2019-02-20T02:15:07.962Z,2.50
2019-02-20T02:20:33.198Z,2.40
2019-02-20T02:25:58.899Z,2.30
2019-02-20T02:28:41.151Z,2.30
2019-02-20T02:31:22.625Z,2.20
2019-02-20T02:34:04.479Z,2.20
2019-02-20T02:36:45.644Z,2.20
2019-02-20T02:42:12.527Z,2.20
2019-02-20T02:44:57.086Z,2.20
2019-02-20T02:47:42.085Z,2.20
2019-02-20T02:53:07.947Z,2.20
2019-02-20T02:55:50.420Z,2.20
2019-02-20T02:58:32.073Z,2.20
2019-02-20T03:01:13.897Z,2.20
2019-02-20T03:03:55.403Z,2.20
2019-02-20T03:06:37.217Z,2.20
2019-02-20T03:09:18.706Z,2.20
2019-02-20T03:11:59.883Z,2.10
2019-02-20T03:14:41.597Z,2.00
2019-02-20T03:17:23.312Z,2.00
2019-02-20T03:20:04.466Z,2.00
2019-02-20T03:22:46.126Z,2.00
2019-02-20T03:25:27.752Z,2.10
2019-02-20T03:28:09.475Z,2.10
2019-02-20T03:30:50.942Z,2.10
2019-02-20T03:33:32.430Z,2.10
2019-02-20T03:36:13.948Z,2.10
2019-02-20T03:38:55.469Z,2.10
2019-02-20T03:41:37.204Z,2.10
2019-02-20T03:44:17.919Z,2.10
2019-02-20T03:46:59.361Z,2.10
2019-02-20T03:49:41.271Z,2.00
2019-02-20T03:52:22.344Z,2.00
2019-02-20T03:55:03.792Z,2.00
2019-02-20T03:57:47.745Z,1.90
2019-02-20T04:03:17.231Z,1.80
2019-02-20T04:08:43.566Z,1.80
2019-02-20T04:11:24.674Z,1.80
2019-02-20T04:14:06.438Z,1.80
2019-02-20T04:16:47.856Z,1.80
2019-02-20T04:19:29.748Z,1.90
2019-02-20T04:22:11.205Z,2.00
2019-02-20T04:24:52.780Z,2.00
2019-02-20T04:27:33.894Z,2.10
2019-02-20T04:30:15.155Z,2.10
2019-02-20T04:32:58.513Z,2.20
2019-02-20T04:35:39.445Z,2.20
2019-02-20T04:38:21.043Z,2.30
2019-02-20T04:41:02.022Z,2.30
2019-02-20T04:43:46.447Z,2.30
2019-02-20T04:46:28.314Z,2.30
2019-02-20T04:49:10.053Z,2.40
2019-02-20T04:51:52.013Z,2.40
2019-02-20T04:57:52.551Z,2.40
2019-02-20T05:03:18.752Z,2.40
2019-02-20T05:08:44.609Z,2.40
2019-02-20T05:11:25.860Z,2.40
2019-02-20T05:14:06.968Z,2.40
2019-02-20T05:19:37.405Z,2.40
2019-02-20T05:25:03.310Z,2.40
2019-02-20T05:27:44.567Z,2.40
2019-02-20T05:30:26.149Z,2.50
2019-02-20T05:35:56.853Z,2.50
2019-02-20T17:14:49.286Z,5.00
2019-02-20T17:17:57.770Z,5.00
2019-02-20T17:20:39.338Z,5.00
2019-02-20T17:23:20.409Z,5.00
2019-02-20T17:28:57.573Z,5.00
2019-02-20T17:31:39.320Z,5.00
2019-02-20T17:34:19.881Z,5.00
2019-02-20T17:37:01.115Z,4.90
2019-02-20T17:39:43.115Z,4.90
2019-02-20T17:42:25.067Z,4.90
2019-02-20T17:45:08.027Z,4.90
2019-02-20T17:47:49.728Z,4.80
2019-02-20T17:50:31.448Z,4.80
2019-02-20T17:53:13.297Z,4.80
2019-02-20T17:58:33.641Z,4.70
2019-02-20T18:01:16.324Z,4.70
2019-02-20T18:03:58.245Z,4.70
2019-02-20T18:06:42.202Z,4.70
2019-02-20T18:09:23.770Z,4.70
2019-02-20T18:12:07.339Z,4.60
2019-02-20T18:14:49.200Z,4.60
2019-02-20T18:20:14.848Z,4.50
2019-02-20T18:22:55.911Z,4.50
2019-02-20T18:25:36.821Z,4.50
2019-02-20T18:28:24.454Z,4.50
2019-02-20T18:31:02.327Z,4.40
2019-02-20T18:33:44.213Z,4.40
2019-02-20T18:36:25.394Z,4.40
2019-02-20T18:39:07.080Z,4.40
2019-02-20T18:41:49.060Z,4.40
2019-02-20T18:44:30.143Z,4.40
2019-02-20T18:47:12.479Z,4.40
2019-02-20T18:49:55.101Z,4.40
2019-02-20T18:52:36.767Z,4.40
2019-02-20T18:55:19.020Z,4.30
2019-02-20T18:58:00.819Z,4.30
2019-02-20T19:00:41.973Z,4.30
2019-02-20T19:03:24.413Z,4.30
2019-02-20T19:06:06.649Z,4.30
2019-02-20T19:08:48.169Z,4.30
2019-02-20T19:11:30.464Z,4.30
2019-02-20T19:14:12.231Z,4.20
2019-02-20T19:16:53.345Z,4.20
2019-02-20T19:19:34.436Z,4.20
2019-02-20T19:25:02.079Z,4.20
2019-02-20T19:27:44.631Z,4.20
2019-02-20T19:30:25.564Z,4.10
2019-02-20T19:33:07.913Z,4.10
2019-02-20T19:35:48.425Z,4.10
2019-02-20T19:38:30.125Z,4.10
2019-02-20T19:41:11.861Z,4.00
2019-02-20T19:43:53.264Z,4.00
2019-02-20T19:46:36.129Z,4.00
2019-02-20T19:49:16.981Z,4.00
2019-02-20T19:51:58.651Z,4.00
2019-02-20T19:54:42.192Z,4.00
2019-02-20T19:57:23.579Z,4.00
2019-02-20T20:00:04.759Z,4.00
2019-02-20T20:02:46.177Z,3.90
2019-02-20T20:05:29.215Z,3.90
2019-02-20T20:08:10.919Z,3.90
2019-02-20T20:10:52.532Z,3.90
2019-02-20T20:13:34.164Z,3.90
2019-02-20T20:16:17.581Z,3.90
2019-02-20T20:21:44.659Z,3.90
2019-02-20T20:24:27.182Z,3.90
2019-02-20T20:27:16.404Z,3.90
2019-02-20T20:29:58.569Z,3.80
2019-02-20T20:33:05.406Z,3.80
2019-02-20T20:35:35.766Z,3.80
2019-02-20T20:38:21.403Z,3.80
2019-02-20T20:41:03.516Z,3.80
2019-02-20T20:43:44.593Z,3.80
2019-02-20T20:46:28.118Z,3.80
2019-02-20T20:52:31.272Z,3.80
2019-02-20T20:55:12.762Z,3.90
2019-02-20T20:57:54.750Z,3.90
2019-02-20T21:03:23.098Z,3.90
2019-02-20T21:06:05.057Z,3.90
2019-02-20T21:08:46.840Z,3.90
2019-02-20T21:11:30.647Z,3.90
2019-02-20T21:14:12.859Z,3.90
2019-02-20T21:16:54.529Z,3.80
2019-02-20T21:19:40.610Z,3.80
2019-02-20T21:22:25.333Z,3.80
2019-02-20T21:25:07.639Z,3.80
2019-02-20T21:27:51.374Z,3.70
2019-02-20T21:30:34.437Z,3.70
2019-02-20T21:33:16.916Z,3.70
2019-02-20T21:35:59.939Z,3.70
2019-02-20T21:38:42.964Z,3.70
2019-02-20T21:41:28.393Z,3.70
2019-02-20T21:44:13.558Z,3.70
2019-02-20T21:46:56.009Z,3.70
2019-02-20T21:49:40.241Z,3.70
2019-02-20T21:52:21.913Z,3.70
2019-02-20T21:55:03.809Z,3.70
2019-02-20T21:57:49.297Z,3.70
2019-02-20T22:00:32.899Z,3.70
2019-02-20T22:03:14.429Z,3.70
2019-02-20T22:05:58.482Z,3.70
2019-02-20T22:08:40.437Z,3.70
2019-02-20T22:11:24.217Z,3.70
2019-02-20T22:14:04.174Z,3.70
2019-02-20T22:16:46.005Z,3.70
2019-02-20T22:19:26.753Z,3.70
2019-02-20T22:24:53.191Z,3.60
2019-02-20T22:27:34.774Z,3.50
2019-02-20T22:30:16.883Z,3.50
2019-02-20T22:33:02.694Z,3.60
2019-02-20T22:35:43.998Z,3.60
2019-02-20T22:38:26.246Z,3.70
2019-02-20T22:41:08.254Z,3.70
2019-02-20T22:43:49.953Z,3.70
2019-02-20T22:46:33.775Z,3.70
2019-02-20T22:49:15.550Z,3.70
2019-02-20T22:52:00.058Z,3.80
2019-02-20T22:54:40.414Z,3.70
2019-02-20T22:57:22.065Z,3.70
2019-02-20T23:00:03.957Z,3.70
2019-02-20T23:02:45.856Z,3.70
2019-02-20T23:05:28.359Z,3.70
2019-02-20T23:08:10.350Z,3.70
2019-02-20T23:10:53.419Z,3.70
2019-02-20T23:16:32.318Z,3.80
2019-02-20T23:19:16.989Z,3.80
2019-02-20T23:21:58.750Z,3.80
2019-02-20T23:24:42.043Z,3.80
2019-02-20T23:27:25.349Z,3.80
2019-02-20T23:30:12.940Z,3.80
2019-02-20T23:32:53.212Z,3.80
2019-02-20T23:35:34.286Z,3.80
2019-02-20T23:38:16.099Z,3.80
2019-02-20T23:40:58.320Z,3.80
2019-02-20T23:43:39.673Z,3.80
2019-02-20T23:46:21.575Z,3.90
2019-02-20T23:49:03.210Z,3.90
2019-02-20T23:51:45.118Z,3.90
2019-02-20T23:54:26.232Z,3.80
2019-02-20T23:57:07.883Z,3.90
2019-02-20T23:59:49.200Z,3.80
